Time;durP1;ratioP1;P1;durP2;ratioP2;P2;SDS_P1;SDS_P2;PMS_P1;PMS_P2;Temp;Humidity;BMP_temperature;BMP_pressure;BME280_temperature;BME280_humidity;BME280_pressure;Samples;Min_cycle;Max_cycle;Signal;HPM_P1;HPM_P2
2023/11/05 06:01:26;;;;;;;3.40;1.10;;;;;;;;;;5494569;23;20495;-70
2023/11/05 06:03:52;;;;;;;3.80;1.00;;;;;;;;;;4974963;28;20499;-69
2023/11/05 06:06:18;;;;;;;1.77;1.00;;;;;;;;;;4974902;28;20543;-70
2023/11/05 06:08:45;;;;;;;2.30;1.00;;;;;;;;;;4974893;28;20435;-70
2023/11/05 06:11:11;;;;;;;1.80;1.30;;;;;;;;;;4974574;28;20499;-70
2023/11/05 06:13:37;;;;;;;2.87;1.07;;;;;;;;;;4974780;28;20400;-70
2023/11/05 06:16:03;;;;;;;9.60;1.37;;;;;;;;;;4974947;28;20486;-70
2023/11/05 06:18:29;;;;;;;5.73;1.70;;;;;;;;;;4974598;28;20412;-70
2023/11/05 06:20:55;;;;;;;6.20;1.60;;;;;;;;;;4974353;28;20856;-69
2023/11/05 06:23:21;;;;;;;4.93;1.40;;;;;;;;;;4974405;28;20416;-70
2023/11/05 06:25:47;;;;;;;2.87;1.00;;;;;;;;;;4974454;28;20452;-70
2023/11/05 06:28:15;;;;;;;3.13;1.10;;;;;;;;;;4974466;28;20416;-70
2023/11/05 06:30:41;;;;;;;3.83;1.10;;;;;;;;;;4974312;28;20463;-70
2023/11/05 06:33:07;;;;;;;1.27;0.80;;;;;;;;;;4974130;28;20415;-69
2023/11/05 06:35:33;;;;;;;5.73;1.13;;;;;;;;;;4974283;28;20404;-70
2023/11/05 06:37:58;;;;;;;1.73;0.97;;;;;;;;;;4974188;28;20408;-69
2023/11/05 06:40:24;;;;;;;2.00;0.97;;;;;;;;;;4974143;28;20423;-70
2023/11/05 06:42:50;;;;;;;3.40;1.23;;;;;;;;;;4973926;28;20473;-70
2023/11/05 06:45:16;;;;;;;2.40;1.10;;;;;;;;;;4974113;28;20774;-70
2023/11/05 06:47:42;;;;;;;4.93;1.47;;;;;;;;;;4974128;28;20554;-69
2023/11/05 06:50:09;;;;;;;3.23;0.90;;;;;;;;;;4973789;28;20466;-70
2023/11/05 06:52:35;;;;;;;2.43;1.00;;;;;;;;;;4973911;28;20431;-69
2023/11/05 06:55:01;;;;;;;1.50;1.00;;;;;;;;;;4973976;28;20498;-70
2023/11/05 06:57:27;;;;;;;6.50;0.90;;;;;;;;;;4956707;28;20870;-69
2023/11/05 06:59:53;;;;;;;2.07;0.80;;;;;;;;;;4974224;28;20430;-70
2023/11/05 07:02:19;;;;;;;1.50;0.87;;;;;;;;;;4973789;28;20467;-68
2023/11/05 07:04:45;;;;;;;3.80;1.00;;;;;;;;;;4973872;28;20412;-68
2023/11/05 07:07:11;;;;;;;1.93;1.10;;;;;;;;;;4973100;28;20427;-69
2023/11/05 07:09:37;;;;;;;2.87;1.10;;;;;;;;;;4973477;28;20447;-69
2023/11/05 07:12:04;;;;;;;0.97;0.90;;;;;;;;;;4973597;28;20432;-69
2023/11/05 07:14:30;;;;;;;1.27;0.80;;;;;;;;;;4973621;28;20404;-69
2023/11/05 07:16:56;;;;;;;0.93;0.83;;;;;;;;;;4973383;28;20507;-69
2023/11/05 07:19:22;;;;;;;2.03;0.97;;;;;;;;;;4973365;28;20409;-70
2023/11/05 07:21:48;;;;;;;5.53;1.17;;;;;;;;;;4973018;28;20973;-70
2023/11/05 07:24:14;;;;;;;1.37;0.80;;;;;;;;;;4973621;28;20896;-70
2023/11/05 07:26:42;;;;;;;0.97;0.90;;;;;;;;;;4973721;28;20420;-70
2023/11/05 07:29:10;;;;;;;6.47;1.10;;;;;;;;;;4973466;28;20793;-70
2023/11/05 07:31:37;;;;;;;1.80;0.93;;;;;;;;;;4973100;28;20474;-70
2023/11/05 07:34:03;;;;;;;2.40;0.90;;;;;;;;;;4973374;28;20404;-72
2023/11/05 07:36:29;;;;;;;3.50;1.40;;;;;;;;;;4973280;28;20503;-70
2023/11/05 07:38:56;;;;;;;2.37;0.80;;;;;;;;;;4973275;28;20412;-70
2023/11/05 07:41:22;;;;;;;2.17;1.13;;;;;;;;;;4973040;28;20494;-70
2023/11/05 07:43:48;;;;;;;2.53;0.90;;;;;;;;;;4972885;28;20912;-69
2023/11/05 07:46:14;;;;;;;2.00;0.73;;;;;;;;;;4973113;28;20412;-69
2023/11/05 07:48:40;;;;;;;1.43;0.80;;;;;;;;;;4972662;28;20490;-70
2023/11/05 07:51:06;;;;;;;0.90;0.70;;;;;;;;;;4972755;28;20550;-70
2023/11/05 07:53:32;;;;;;;0.83;0.70;;;;;;;;;;4973201;28;20412;-70
2023/11/05 07:55:59;;;;;;;1.33;0.80;;;;;;;;;;4973016;28;20407;-70
2023/11/05 07:58:26;;;;;;;2.87;0.90;;;;;;;;;;4973310;28;20416;-70
2023/11/05 08:00:52;;;;;;;2.37;1.00;;;;;;;;;;4972737;28;20560;-70
2023/11/05 08:03:18;;;;;;;0.70;0.60;;;;;;;;;;4973255;28;20416;-72
2023/11/05 08:05:44;;;;;;;1.93;0.90;;;;;;;;;;4973229;28;20450;-71
2023/11/05 08:08:10;;;;;;;2.10;0.70;;;;;;;;;;4973330;28;20420;-70
2023/11/05 08:10:37;;;;;;;1.90;0.90;;;;;;;;;;4973185;28;20982;-71
2023/11/05 08:13:03;;;;;;;2.97;0.80;;;;;;;;;;4972930;28;20408;-72
2023/11/05 08:15:28;;;;;;;0.97;0.77;;;;;;;;;;4972953;28;21011;-70
2023/11/05 08:17:54;;;;;;;1.00;0.90;;;;;;;;;;4972810;28;20843;-72
2023/11/05 08:20:21;;;;;;;1.10;0.90;;;;;;;;;;4976123;28;20839;-71
2023/11/05 08:22:47;;;;;;;0.83;0.80;;;;;;;;;;4976307;28;20424;-71
2023/11/05 08:25:14;;;;;;;2.80;1.30;;;;;;;;;;4976736;28;20412;-70
2023/11/05 08:27:41;;;;;;;4.10;0.70;;;;;;;;;;4977060;28;20847;-70
2023/11/05 08:30:11;;;;;;;0.93;0.70;;;;;;;;;;4976427;28;20947;-70
2023/11/05 08:32:36;;;;;;;1.70;0.80;;;;;;;;;;4976497;28;20773;-70
2023/11/05 08:35:03;;;;;;;1.53;0.70;;;;;;;;;;4976753;28;20411;-70
2023/11/05 08:37:30;;;;;;;1.70;0.90;;;;;;;;;;4976497;28;20412;-70
2023/11/05 08:39:56;;;;;;;3.03;1.23;;;;;;;;;;4976464;28;20459;-69
2023/11/05 08:42:22;;;;;;;6.60;1.47;;;;;;;;;;4967069;28;20802;-69
2023/11/05 08:44:47;;;;;;;1.00;0.90;;;;;;;;;;4956865;29;20968;-70
2023/11/05 08:47:13;;;;;;;2.03;1.00;;;;;;;;;;4956959;29;20901;-71
2023/11/05 08:49:40;;;;;;;1.00;0.70;;;;;;;;;;4966705;28;20416;-70
2023/11/05 08:52:06;;;;;;;0.60;0.60;;;;;;;;;;4975833;28;20431;-72
2023/11/05 08:54:36;;;;;;;4.33;0.77;;;;;;;;;;4976250;28;20404;-70
2023/11/05 08:57:02;;;;;;;2.00;0.93;;;;;;;;;;4975987;28;20770;-70
2023/11/05 08:59:27;;;;;;;0.93;0.90;;;;;;;;;;4975730;28;20412;-71
2023/11/05 09:01:53;;;;;;;1.30;0.87;;;;;;;;;;4975466;28;20972;-71
2023/11/05 09:04:20;;;;;;;1.30;0.83;;;;;;;;;;4976003;28;20904;-70
2023/11/05 09:06:47;;;;;;;3.13;0.67;;;;;;;;;;4975982;28;20809;-71
2023/11/05 09:09:15;;;;;;;5.23;0.80;;;;;;;;;;4974585;28;20420;-70
2023/11/05 09:11:41;;;;;;;0.83;0.73;;;;;;;;;;4975130;28;20482;-71
2023/11/05 09:14:07;;;;;;;4.60;1.10;;;;;;;;;;4975850;28;20431;-71
2023/11/05 09:16:33;;;;;;;9.63;0.80;;;;;;;;;;4975789;28;20404;-73
2023/11/05 09:18:59;;;;;;;2.10;0.70;;;;;;;;;;4976119;28;20804;-72
2023/11/05 09:21:27;;;;;;;0.90;0.80;;;;;;;;;;4975150;28;20538;-70
2023/11/05 09:23:52;;;;;;;1.77;0.80;;;;;;;;;;4975740;28;20412;-70
2023/11/05 09:26:19;;;;;;;1.37;0.90;;;;;;;;;;4975331;28;20427;-69
2023/11/05 09:28:45;;;;;;;1.90;0.90;;;;;;;;;;4975268;28;20408;-69
2023/11/05 09:31:12;;;;;;;0.83;0.70;;;;;;;;;;4973901;28;20533;-69
2023/11/05 09:33:38;;;;;;;0.90;0.80;;;;;;;;;;4975287;28;20486;-70
2023/11/05 09:36:05;;;;;;;1.27;0.80;;;;;;;;;;4975023;28;20412;-69
2023/11/05 09:38:33;;;;;;;2.40;1.27;;;;;;;;;;4975295;28;20466;-69
2023/11/05 09:40:59;;;;;;;1.63;0.90;;;;;;;;;;4975255;28;20435;-69
2023/11/05 09:43:25;;;;;;;3.33;1.00;;;;;;;;;;4974911;28;20500;-69
2023/11/05 09:45:52;;;;;;;3.20;0.90;;;;;;;;;;4975074;28;20432;-69
2023/11/05 09:48:18;;;;;;;3.67;1.00;;;;;;;;;;4975457;28;20846;-69
2023/11/05 09:50:44;;;;;;;0.70;0.70;;;;;;;;;;4975013;28;20966;-69
2023/11/05 09:53:11;;;;;;;1.43;0.73;;;;;;;;;;4974557;28;20830;-70
2023/11/05 09:55:41;;;;;;;1.17;1.00;;;;;;;;;;4975100;28;20935;-70
2023/11/05 09:58:07;;;;;;;2.17;0.80;;;;;;;;;;4974877;28;20873;-70
2023/11/05 10:00:33;;;;;;;1.93;0.87;;;;;;;;;;4974834;28;20459;-70
2023/11/05 10:03:00;;;;;;;4.87;0.90;;;;;;;;;;4974767;28;20403;-71
2023/11/05 10:05:28;;;;;;;1.00;0.80;;;;;;;;;;4975006;28;20419;-69
2023/11/05 10:07:54;;;;;;;2.50;1.00;;;;;;;;;;4974977;28;20450;-70
2023/11/05 10:10:20;;;;;;;1.40;1.00;;;;;;;;;;4974375;28;20463;-70
2023/11/05 10:12:46;;;;;;;0.80;0.70;;;;;;;;;;4975066;28;20415;-70
2023/11/05 10:15:12;;;;;;;2.37;0.80;;;;;;;;;;4975129;28;20896;-70
2023/11/05 10:17:38;;;;;;;2.83;1.23;;;;;;;;;;4974894;28;20408;-70
2023/11/05 10:20:06;;;;;;;0.87;0.77;;;;;;;;;;4974546;28;20412;-71
2023/11/05 10:22:32;;;;;;;1.90;0.73;;;;;;;;;;4974363;28;20444;-70
2023/11/05 10:24:58;;;;;;;2.10;0.90;;;;;;;;;;4974463;28;20412;-70
2023/11/05 10:27:32;;;;;;;3.70;1.00;;;;;;;;;;4974460;28;20407;-70
2023/11/05 10:29:59;;;;;;;2.07;0.90;;;;;;;;;;4973989;28;20431;-71
2023/11/05 10:32:26;;;;;;;4.67;1.07;;;;;;;;;;4973906;28;20440;-70
2023/11/05 10:34:52;;;;;;;1.03;0.73;;;;;;;;;;4974333;28;20404;-70
2023/11/05 10:37:19;;;;;;;2.93;1.30;;;;;;;;;;4974327;28;20805;-70
2023/11/05 10:39:45;;;;;;;2.77;1.20;;;;;;;;;;4974345;28;20404;-70
2023/11/05 10:42:14;;;;;;;1.70;1.07;;;;;;;;;;4973593;28;20432;-71
2023/11/05 10:44:43;;;;;;;1.07;1.00;;;;;;;;;;4973798;28;20423;-70
2023/11/05 10:47:10;;;;;;;1.87;1.00;;;;;;;;;;4974128;28;20446;-70
2023/11/05 10:49:37;;;;;;;1.50;0.80;;;;;;;;;;4974289;28;20416;-71
2023/11/05 10:52:03;;;;;;;1.43;1.10;;;;;;;;;;4973731;28;20493;-70
2023/11/05 10:54:31;;;;;;;2.33;1.10;;;;;;;;;;4974031;28;20869;-70
2023/11/05 10:56:57;;;;;;;6.63;2.50;;;;;;;;;;4973430;28;20460;-71
2023/11/05 10:59:34;;;;;;;1.97;0.90;;;;;;;;;;4973598;28;20428;-71
2023/11/05 11:02:00;;;;;;;2.13;1.10;;;;;;;;;;4973295;28;20462;-71
2023/11/05 11:04:27;;;;;;;2.77;0.97;;;;;;;;;;4973698;28;20431;-70
2023/11/05 11:06:53;;;;;;;1.33;1.00;;;;;;;;;;4973916;28;20426;-70
2023/11/05 11:09:19;;;;;;;6.30;1.50;;;;;;;;;;4973617;28;20911;-70
2023/11/05 11:11:48;;;;;;;2.23;1.17;;;;;;;;;;4973577;28;20525;-71
2023/11/05 11:14:15;;;;;;;4.33;1.43;;;;;;;;;;4973606;28;20416;-70
2023/11/05 11:16:42;;;;;;;2.10;1.47;;;;;;;;;;4973750;28;20436;-70
2023/11/05 11:19:12;;;;;;;2.97;1.50;;;;;;;;;;4973241;28;20465;-70
2023/11/05 11:22:02;;;;;;;1.80;1.13;;;;;;;;;;4973352;28;20444;-70
2023/11/05 11:24:33;;;;;;;3.20;0.90;;;;;;;;;;4973466;28;20479;-70
2023/11/05 11:27:04;;;;;;;3.30;1.30;;;;;;;;;;4973546;28;20759;-70
2023/11/05 11:29:31;;;;;;;1.43;1.30;;;;;;;;;;4973218;28;20466;-70
2023/11/05 11:31:57;;;;;;;2.63;1.33;;;;;;;;;;4973158;28;21048;-71
2023/11/05 11:34:25;;;;;;;1.27;1.17;;;;;;;;;;4973710;28;20424;-70
2023/11/05 11:36:58;;;;;;;4.37;1.43;;;;;;;;;;4973569;28;20408;-71
2023/11/05 11:39:25;;;;;;;3.30;1.77;;;;;;;;;;4973574;28;20789;-71
2023/11/05 11:41:51;;;;;;;1.63;1.53;;;;;;;;;;4972556;28;20577;-70
2023/11/05 11:44:17;;;;;;;1.47;1.00;;;;;;;;;;4973715;28;20499;-71
2023/11/05 11:46:44;;;;;;;1.80;1.10;;;;;;;;;;4974684;28;20420;-71
2023/11/05 11:49:11;;;;;;;2.27;0.90;;;;;;;;;;4973837;28;20854;-70
2023/11/05 11:51:38;;;;;;;1.20;1.10;;;;;;;;;;4972827;28;20491;-71
2023/11/05 11:54:04;;;;;;;1.43;0.80;;;;;;;;;;4972409;28;20510;-71
2023/11/05 11:56:31;;;;;;;1.10;1.00;;;;;;;;;;4972936;28;20511;-71
2023/11/05 11:59:02;;;;;;;2.87;1.47;;;;;;;;;;4974060;28;20416;-71
2023/11/05 12:01:28;;;;;;;1.73;1.07;;;;;;;;;;4972682;28;20955;-71
2023/11/05 12:03:56;;;;;;;1.43;1.07;;;;;;;;;;4973015;28;20419;-71
2023/11/05 12:06:22;;;;;;;4.67;2.00;;;;;;;;;;4972684;28;20428;-72
2023/11/05 12:08:49;;;;;;;1.63;1.40;;;;;;;;;;4972918;28;20419;-71
2023/11/05 12:11:19;;;;;;;1.80;1.30;;;;;;;;;;4972291;28;20471;-71
2023/11/05 12:13:46;;;;;;;1.23;1.10;;;;;;;;;;4972909;28;20443;-71
2023/11/05 12:16:12;;;;;;;2.13;1.77;;;;;;;;;;5009182;23;20498;-70
2023/11/05 12:18:39;;;;;;;2.30;1.00;;;;;;;;;;4992316;28;20407;-71
2023/11/05 12:21:07;;;;;;;0.87;0.77;;;;;;;;;;4992182;28;20411;-70
2023/11/05 12:23:34;;;;;;;1.67;0.90;;;;;;;;;;4992320;28;20454;-73
2023/11/05 12:26:00;;;;;;;1.00;0.80;;;;;;;;;;4992467;28;20439;-73
2023/11/05 12:28:27;;;;;;;2.63;0.83;;;;;;;;;;4991541;28;20418;-73
2023/11/05 12:30:55;;;;;;;0.90;0.80;;;;;;;;;;4973023;28;20531;-73
2023/11/05 12:33:23;;;;;;;1.13;1.03;;;;;;;;;;4972851;28;20412;-73
2023/11/05 12:35:49;;;;;;;3.20;1.33;;;;;;;;;;4972928;28;20427;-73
2023/11/05 12:38:15;;;;;;;1.10;1.10;;;;;;;;;;4985629;28;20419;-73
2023/11/05 12:40:41;;;;;;;0.77;0.70;;;;;;;;;;4992129;28;20557;-73
2023/11/05 12:43:07;;;;;;;0.77;0.60;;;;;;;;;;4992407;28;20419;-73
2023/11/05 12:45:33;;;;;;;1.07;1.00;;;;;;;;;;4992254;28;20522;-72
2023/11/05 12:47:59;;;;;;;1.10;0.80;;;;;;;;;;4991736;28;20439;-73
2023/11/05 12:50:25;;;;;;;2.20;0.90;;;;;;;;;;4992160;28;20565;-74
2023/11/05 12:52:51;;;;;;;4.50;1.50;;;;;;;;;;4991500;28;20426;-73
2023/11/05 12:55:17;;;;;;;2.33;1.50;;;;;;;;;;4991754;28;20423;-71
2023/11/05 12:57:46;;;;;;;3.87;1.93;;;;;;;;;;4992058;28;20411;-73
2023/11/05 13:00:13;;;;;;;4.67;1.57;;;;;;;;;;4992108;28;20450;-74
2023/11/05 13:02:39;;;;;;;1.90;1.20;;;;;;;;;;4992718;28;20415;-72
2023/11/05 13:05:06;;;;;;;1.70;0.93;;;;;;;;;;4992871;28;20439;-73
2023/11/05 13:07:34;;;;;;;1.00;1.00;;;;;;;;;;4984053;28;20510;-72
2023/11/05 13:10:00;;;;;;;1.13;1.07;;;;;;;;;;4998717;28;20921;-72
2023/11/05 13:12:26;;;;;;;3.73;1.60;;;;;;;;;;4995493;28;20415;-73
2023/11/05 13:14:52;;;;;;;10.40;3.90;;;;;;;;;;4995655;28;20829;-72
2023/11/05 13:17:18;;;;;;;12.70;4.67;;;;;;;;;;4986811;28;20794;-74
2023/11/05 13:19:44;;;;;;;7.33;3.77;;;;;;;;;;4976177;28;20404;-70
2023/11/05 13:22:10;;;;;;;7.00;3.10;;;;;;;;;;4958524;28;20920;-72
2023/11/05 13:24:37;;;;;;;2.47;1.90;;;;;;;;;;4975799;28;20456;-72
2023/11/05 13:27:03;;;;;;;2.60;1.60;;;;;;;;;;4985048;28;20798;-72
2023/11/05 13:29:30;;;;;;;3.90;1.27;;;;;;;;;;4995121;28;20504;-72
2023/11/05 13:31:56;;;;;;;1.57;1.30;;;;;;;;;;4995076;28;20469;-70
2023/11/05 13:34:22;;;;;;;3.90;1.10;;;;;;;;;;4994983;28;20486;-71
2023/11/05 13:36:48;;;;;;;1.50;0.97;;;;;;;;;;4995162;28;20461;-72
2023/11/05 13:39:14;;;;;;;2.13;1.10;;;;;;;;;;4982535;28;20872;-71
2023/11/05 13:41:40;;;;;;;4.60;1.43;;;;;;;;;;4992073;28;20459;-71
2023/11/05 13:44:07;;;;;;;1.73;1.10;;;;;;;;;;4984970;28;20934;-71
2023/11/05 13:46:33;;;;;;;4.43;1.93;;;;;;;;;;4981361;28;20451;-72
2023/11/05 13:48:59;;;;;;;1.80;1.47;;;;;;;;;;4976570;28;20798;-74
2023/11/05 13:51:26;;;;;;;2.30;1.17;;;;;;;;;;4985383;28;20480;-72
2023/11/05 13:53:56;;;;;;;1.50;1.00;;;;;;;;;;4989697;28;20447;-73
2023/11/05 13:56:22;;;;;;;3.67;1.63;;;;;;;;;;4975757;28;20571;-72
2023/11/05 13:58:48;;;;;;;3.20;1.10;;;;;;;;;;4975814;28;20400;-74
2023/11/05 14:01:17;;;;;;;3.03;1.20;;;;;;;;;;4979860;28;20517;-74
2023/11/05 14:03:44;;;;;;;1.13;1.03;;;;;;;;;;4994679;28;20430;-75
2023/11/05 14:06:09;;;;;;;1.63;0.90;;;;;;;;;;4988902;28;20456;-74
2023/11/05 14:08:35;;;;;;;1.80;1.20;;;;;;;;;;4975233;28;20507;-75
2023/11/05 14:11:01;;;;;;;1.77;1.20;;;;;;;;;;4984801;28;20466;-74
2023/11/05 14:13:28;;;;;;;3.80;1.73;;;;;;;;;;4992638;28;20419;-72
2023/11/05 14:15:54;;;;;;;2.73;1.60;;;;;;;;;;4986286;28;21001;-75
2023/11/05 14:18:20;;;;;;;3.50;1.30;;;;;;;;;;4977229;28;20414;-76
2023/11/05 14:20:46;;;;;;;1.70;1.30;;;;;;;;;;4993982;28;20449;-76
2023/11/05 14:23:12;;;;;;;1.60;1.40;;;;;;;;;;4971545;28;20420;-75
2023/11/05 14:25:39;;;;;;;3.60;1.50;;;;;;;;;;4976324;28;20432;-73
2023/11/05 14:28:05;;;;;;;2.40;1.20;;;;;;;;;;4991784;28;20477;-73
2023/11/05 14:30:31;;;;;;;1.80;1.13;;;;;;;;;;4987240;28;20471;-73
2023/11/05 14:32:57;;;;;;;3.83;1.40;;;;;;;;;;4957383;28;20452;-71
2023/11/05 14:35:23;;;;;;;1.90;1.60;;;;;;;;;;4974627;28;20440;-72
2023/11/05 14:37:49;;;;;;;1.67;1.20;;;;;;;;;;4975535;28;20456;-72
2023/11/05 14:40:15;;;;;;;5.20;1.27;;;;;;;;;;4974425;28;20412;-72
2023/11/05 14:42:41;;;;;;;4.20;1.20;;;;;;;;;;4989041;28;20427;-73
2023/11/05 14:45:08;;;;;;;1.20;1.10;;;;;;;;;;4983093;28;20460;-74
2023/11/05 14:47:34;;;;;;;2.37;1.60;;;;;;;;;;4983164;28;20562;-72
2023/11/05 14:50:00;;;;;;;1.67;1.33;;;;;;;;;;4989979;28;20428;-73
2023/11/05 14:52:27;;;;;;;3.33;1.20;;;;;;;;;;4973781;28;20455;-74
2023/11/05 14:54:54;;;;;;;3.30;1.70;;;;;;;;;;4977587;28;20451;-73
2023/11/05 14:57:20;;;;;;;4.83;2.47;;;;;;;;;;4956695;28;20431;-73
2023/11/05 14:59:46;;;;;;;2.40;1.43;;;;;;;;;;4957676;28;20961;-72
2023/11/05 15:02:12;;;;;;;2.50;1.50;;;;;;;;;;4973808;28;20435;-72
2023/11/05 15:04:40;;;;;;;1.90;1.30;;;;;;;;;;4982113;28;20440;-75
2023/11/05 15:07:06;;;;;;;4.10;1.20;;;;;;;;;;4975356;28;20437;-73
2023/11/05 15:09:32;;;;;;;1.20;1.10;;;;;;;;;;4974879;28;20427;-71
2023/11/05 15:11:58;;;;;;;2.90;1.57;;;;;;;;;;4973504;28;20495;-72
2023/11/05 15:14:25;;;;;;;1.30;1.20;;;;;;;;;;4973999;28;20777;-73
2023/11/05 15:16:54;;;;;;;1.60;1.10;;;;;;;;;;4974405;28;20858;-72
2023/11/05 15:19:19;;;;;;;1.30;1.20;;;;;;;;;;4973839;28;20432;-72
2023/11/05 15:21:46;;;;;;;1.83;1.20;;;;;;;;;;4974516;28;20833;-73
2023/11/05 15:24:12;;;;;;;2.90;1.20;;;;;;;;;;4978291;28;20458;-73
2023/11/05 15:26:38;;;;;;;2.33;1.33;;;;;;;;;;4985984;28;20482;-73
2023/11/05 15:29:04;;;;;;;5.70;3.00;;;;;;;;;;4954868;28;20771;-72
2023/11/05 15:31:30;;;;;;;3.83;1.50;;;;;;;;;;4990916;28;20565;-73
2023/11/05 15:34:00;;;;;;;2.00;1.10;;;;;;;;;;4992900;28;20427;-73
2023/11/05 15:36:26;;;;;;;2.03;1.60;;;;;;;;;;4971711;28;20463;-73
2023/11/05 15:38:52;;;;;;;3.07;1.10;;;;;;;;;;4989126;28;20514;-72
2023/11/05 15:41:18;;;;;;;1.17;1.00;;;;;;;;;;4991650;28;20465;-72
2023/11/05 15:43:45;;;;;;;2.63;1.10;;;;;;;;;;4992733;28;20422;-72
2023/11/05 15:46:11;;;;;;;3.63;1.67;;;;;;;;;;4979520;28;20456;-72
2023/11/05 15:48:37;;;;;;;5.40;1.83;;;;;;;;;;4993125;28;20514;-72
2023/11/05 15:51:04;;;;;;;3.67;2.20;;;;;;;;;;4997369;28;20474;-74
2023/11/05 15:53:31;;;;;;;3.23;2.43;;;;;;;;;;4970028;28;20435;-74
2023/11/05 15:55:58;;;;;;;2.93;2.10;;;;;;;;;;4995273;28;20452;-70
2023/11/05 15:58:24;;;;;;;3.93;1.80;;;;;;;;;;4990877;28;20501;-71
2023/11/05 16:00:51;;;;;;;7.73;3.17;;;;;;;;;;5000541;28;20415;-71
2023/11/05 16:03:17;;;;;;;3.63;2.60;;;;;;;;;;4999494;28;20489;-72
2023/11/05 16:05:43;;;;;;;2.47;1.63;;;;;;;;;;4976690;28;20459;-74
2023/11/05 16:08:10;;;;;;;2.87;1.30;;;;;;;;;;4982771;28;20427;-74
2023/11/05 16:10:36;;;;;;;1.30;1.03;;;;;;;;;;4994647;28;20502;-75
2023/11/05 16:13:02;;;;;;;1.20;1.10;;;;;;;;;;4992449;28;20502;-74
2023/11/05 16:15:28;;;;;;;1.40;1.17;;;;;;;;;;4992163;28;20961;-73
2023/11/05 16:17:54;;;;;;;1.17;1.07;;;;;;;;;;4992441;28;20441;-74
2023/11/05 16:20:21;;;;;;;3.33;1.63;;;;;;;;;;4975103;28;21009;-71
2023/11/05 16:22:47;;;;;;;2.17;1.63;;;;;;;;;;4994484;28;20431;-73
2023/11/05 16:25:13;;;;;;;6.47;1.73;;;;;;;;;;4995138;28;20533;-74
2023/11/05 16:27:39;;;;;;;7.03;2.90;;;;;;;;;;5004808;28;20456;-73
2023/11/05 16:30:06;;;;;;;1.63;1.30;;;;;;;;;;5016255;28;20505;-73
2023/11/05 16:32:32;;;;;;;1.80;1.80;;;;;;;;;;4998382;28;20925;-73
2023/11/05 16:34:59;;;;;;;4.30;1.70;;;;;;;;;;5007083;28;20447;-74
2023/11/05 16:37:25;;;;;;;1.07;1.00;;;;;;;;;;4989538;28;20498;-74
2023/11/05 16:39:51;;;;;;;1.53;1.30;;;;;;;;;;4975854;28;20942;-74
2023/11/05 16:42:17;;;;;;;4.13;1.80;;;;;;;;;;4995924;28;20486;-75
2023/11/05 16:44:42;;;;;;;2.70;1.53;;;;;;;;;;4996078;28;20411;-74
2023/11/05 16:47:09;;;;;;;2.57;1.40;;;;;;;;;;4989895;28;20462;-74
2023/11/05 16:49:35;;;;;;;1.40;1.30;;;;;;;;;;4959631;28;20431;-74
2023/11/05 16:52:02;;;;;;;2.60;1.30;;;;;;;;;;4991777;28;20467;-74
2023/11/05 16:54:28;;;;;;;1.53;1.00;;;;;;;;;;4996119;28;20419;-74
2023/11/05 16:56:55;;;;;;;2.53;1.70;;;;;;;;;;4996221;28;20407;-74
2023/11/05 16:59:22;;;;;;;2.77;1.90;;;;;;;;;;4991236;28;20426;-73
2023/11/05 17:01:50;;;;;;;2.30;1.97;;;;;;;;;;4965410;28;20495;-74
2023/11/05 17:04:19;;;;;;;3.60;1.70;;;;;;;;;;4980626;28;20429;-73
2023/11/05 17:06:45;;;;;;;1.67;1.60;;;;;;;;;;5001291;28;20438;-74
2023/11/05 17:09:12;;;;;;;1.43;1.33;;;;;;;;;;4998504;28;20403;-73
2023/11/05 17:11:42;;;;;;;1.83;1.70;;;;;;;;;;4981708;28;21000;-74
2023/11/05 17:14:14;;;;;;;3.60;1.77;;;;;;;;;;4958688;28;20512;-73
2023/11/05 17:16:43;;;;;;;1.47;1.30;;;;;;;;;;4976555;28;20448;-71
2023/11/05 17:19:10;;;;;;;4.50;1.80;;;;;;;;;;4981135;28;20412;-71
2023/11/05 17:21:37;;;;;;;4.47;1.30;;;;;;;;;;4976578;28;20511;-72
2023/11/05 17:24:03;;;;;;;2.10;1.33;;;;;;;;;;4976299;28;20420;-72
2023/11/05 17:26:29;;;;;;;6.10;1.90;;;;;;;;;;4976705;28;20444;-72
2023/11/05 17:28:55;;;;;;;1.23;1.13;;;;;;;;;;4990964;28;20522;-75
2023/11/05 17:31:21;;;;;;;2.80;1.80;;;;;;;;;;4996938;28;20462;-74
2023/11/05 17:33:47;;;;;;;3.10;2.10;;;;;;;;;;4997154;28;20749;-75
2023/11/05 17:36:13;;;;;;;7.90;3.50;;;;;;;;;;4996197;28;20429;-75
2023/11/05 17:38:40;;;;;;;3.30;1.57;;;;;;;;;;4996331;28;20838;-75
2023/11/05 17:41:06;;;;;;;2.87;2.23;;;;;;;;;;4983551;28;20467;-76
2023/11/05 17:43:32;;;;;;;4.47;2.50;;;;;;;;;;4989503;28;20431;-74
2023/11/05 17:45:58;;;;;;;11.13;2.30;;;;;;;;;;4996031;28;20500;-74
2023/11/05 17:48:24;;;;;;;2.10;1.63;;;;;;;;;;4979055;28;20918;-74
2023/11/05 17:50:50;;;;;;;7.03;2.07;;;;;;;;;;4978386;28;20459;-73
2023/11/05 17:53:16;;;;;;;10.67;4.60;;;;;;;;;;4994029;28;20411;-75
2023/11/05 17:55:42;;;;;;;7.87;4.00;;;;;;;;;;4989872;28;20797;-75
2023/11/05 17:58:08;;;;;;;17.80;6.57;;;;;;;;;;4975902;28;20419;-75
2023/11/05 18:00:34;;;;;;;15.47;5.60;;;;;;;;;;4975744;28;20455;-75
2023/11/05 18:03:00;;;;;;;6.43;3.47;;;;;;;;;;4957973;28;20420;-75
2023/11/05 18:05:26;;;;;;;6.27;3.17;;;;;;;;;;4975781;28;20436;-74
2023/11/05 18:07:53;;;;;;;8.90;3.10;;;;;;;;;;4976736;28;20428;-75
2023/11/05 18:10:19;;;;;;;6.03;2.50;;;;;;;;;;4975730;28;20627;-74
2023/11/05 18:12:45;;;;;;;3.53;2.03;;;;;;;;;;4975531;28;20479;-73
2023/11/05 18:15:12;;;;;;;3.67;2.20;;;;;;;;;;5009459;23;22182;-72
2023/11/05 18:17:37;;;;;;;5.03;2.97;;;;;;;;;;4994187;28;20921;-73
2023/11/05 18:20:07;;;;;;;11.30;4.17;;;;;;;;;;4976533;28;20470;-72
2023/11/05 18:22:33;;;;;;;11.57;4.63;;;;;;;;;;4975516;28;20753;-72
2023/11/05 18:25:00;;;;;;;7.80;3.70;;;;;;;;;;4957230;28;20835;-73
2023/11/05 18:27:27;;;;;;;8.60;3.47;;;;;;;;;;4974734;28;20484;-72
2023/11/05 18:29:53;;;;;;;5.77;3.10;;;;;;;;;;4974339;28;20400;-75
2023/11/05 18:32:20;;;;;;;3.47;1.83;;;;;;;;;;4974102;28;20824;-72
2023/11/05 18:34:46;;;;;;;2.00;1.60;;;;;;;;;;4974694;28;20850;-72
2023/11/05 18:37:13;;;;;;;4.73;2.33;;;;;;;;;;4974481;28;20451;-73
2023/11/05 18:39:39;;;;;;;3.90;2.43;;;;;;;;;;4974563;28;20976;-73
2023/11/05 18:42:06;;;;;;;5.43;2.57;;;;;;;;;;4966181;28;20423;-73
2023/11/05 18:44:32;;;;;;;2.97;2.07;;;;;;;;;;4993889;28;20907;-71
2023/11/05 18:47:01;;;;;;;5.40;2.63;;;;;;;;;;4993726;28;20438;-71
2023/11/05 18:49:27;;;;;;;4.73;2.33;;;;;;;;;;4975982;28;20910;-71
2023/11/05 18:51:53;;;;;;;7.37;3.60;;;;;;;;;;4993207;28;20463;-71
2023/11/05 18:54:19;;;;;;;7.13;4.13;;;;;;;;;;4993679;28;21013;-71
2023/11/05 18:56:45;;;;;;;6.67;3.30;;;;;;;;;;4976233;28;20647;-71
2023/11/05 18:59:11;;;;;;;12.30;3.70;;;;;;;;;;4993537;28;20886;-71
2023/11/05 19:01:40;;;;;;;5.33;2.63;;;;;;;;;;4993117;28;20411;-71
2023/11/05 19:04:06;;;;;;;8.80;3.70;;;;;;;;;;4993451;28;20507;-70
2023/11/05 19:06:32;;;;;;;7.33;3.20;;;;;;;;;;4975765;28;20525;-70
2023/11/05 19:08:59;;;;;;;8.80;3.50;;;;;;;;;;4993356;28;20426;-70
2023/11/05 19:11:25;;;;;;;7.57;3.30;;;;;;;;;;4993121;28;20454;-70
2023/11/05 19:13:52;;;;;;;3.60;1.93;;;;;;;;;;4992014;28;20463;-71
2023/11/05 19:16:18;;;;;;;6.20;3.13;;;;;;;;;;4992832;28;20454;-71
2023/11/05 19:18:44;;;;;;;9.90;4.50;;;;;;;;;;4992814;28;20497;-71
2023/11/05 19:21:10;;;;;;;15.77;3.93;;;;;;;;;;4992927;28;20426;-70
2023/11/05 19:23:36;;;;;;;7.53;4.00;;;;;;;;;;4993255;28;20419;-71
2023/11/05 19:26:02;;;;;;;7.30;3.43;;;;;;;;;;4992867;28;20439;-71
2023/11/05 19:28:28;;;;;;;3.67;2.10;;;;;;;;;;4975564;28;20502;-71
2023/11/05 19:30:54;;;;;;;2.83;2.03;;;;;;;;;;4992730;28;20950;-71
2023/11/05 19:33:20;;;;;;;2.70;2.10;;;;;;;;;;4992577;28;20415;-71
2023/11/05 19:35:46;;;;;;;7.17;2.43;;;;;;;;;;4993030;28;20426;-71
2023/11/05 19:38:15;;;;;;;4.10;2.20;;;;;;;;;;4992375;28;20504;-71
2023/11/05 19:40:41;;;;;;;10.83;4.50;;;;;;;;;;4991576;28;20452;-71
2023/11/05 19:43:09;;;;;;;12.60;5.33;;;;;;;;;;4991602;28;20454;-72
2023/11/05 19:45:35;;;;;;;8.63;2.47;;;;;;;;;;4991933;28;20435;-71
2023/11/05 19:48:03;;;;;;;4.40;2.33;;;;;;;;;;4992809;28;20415;-71
2023/11/05 19:50:29;;;;;;;4.20;3.00;;;;;;;;;;4992557;28;20451;-71
2023/11/05 19:52:55;;;;;;;7.57;2.53;;;;;;;;;;4992397;28;20414;-71
2023/11/05 19:55:22;;;;;;;4.93;2.60;;;;;;;;;;4992422;28;20482;-71
2023/11/05 19:57:48;;;;;;;3.87;1.70;;;;;;;;;;4992447;28;20894;-71
2023/11/05 20:00:16;;;;;;;3.33;1.53;;;;;;;;;;4992531;28;20415;-70
2023/11/05 20:02:42;;;;;;;2.97;1.70;;;;;;;;;;4992430;28;20411;-70
2023/11/05 20:05:11;;;;;;;4.97;2.50;;;;;;;;;;4992542;28;20517;-70
2023/11/05 20:07:37;;;;;;;4.63;2.40;;;;;;;;;;4992922;28;20950;-71
2023/11/05 20:10:05;;;;;;;7.70;2.90;;;;;;;;;;4992531;28;20415;-70
2023/11/05 20:12:31;;;;;;;4.60;2.43;;;;;;;;;;4992245;28;20906;-70
2023/11/05 20:14:57;;;;;;;6.10;2.97;;;;;;;;;;4993280;28;20416;-71
2023/11/05 20:17:23;;;;;;;6.87;3.00;;;;;;;;;;4996592;28;20419;-70
2023/11/05 20:19:49;;;;;;;10.50;5.10;;;;;;;;;;4996231;28;20426;-71
2023/11/05 20:22:16;;;;;;;7.80;2.90;;;;;;;;;;4996298;28;20930;-70
2023/11/05 20:24:42;;;;;;;3.90;1.90;;;;;;;;;;4996237;28;20421;-70
2023/11/05 20:27:08;;;;;;;7.40;2.10;;;;;;;;;;4996239;28;20864;-70
2023/11/05 20:29:34;;;;;;;7.40;1.83;;;;;;;;;;4996190;28;20413;-70
2023/11/05 20:32:00;;;;;;;2.50;1.80;;;;;;;;;;4996102;28;20516;-70
2023/11/05 20:34:27;;;;;;;2.93;1.93;;;;;;;;;;4996405;28;20450;-70
2023/11/05 20:36:53;;;;;;;9.00;2.10;;;;;;;;;;4995879;28;20837;-70
2023/11/05 20:39:21;;;;;;;2.93;2.03;;;;;;;;;;4996090;28;20514;-71